Time;durP1;ratioP1;P1;durP2;ratioP2;P2;SDS_P1;SDS_P2;PMS_P1;PMS_P2;Temp;Humidity;BMP_temperature;BMP_pressure;BME280_temperature;BME280_humidity;BME280_pressure;Samples;Min_cycle;Max_cycle;Signal;HPM_P1;HPM_P2
2023/11/05 00:02:08;;;;;;;9.95;2.97;;;10.10;99.90;;;;;;4965357;28;20051;-88
2023/11/05 00:04:34;;;;;;;16.13;3.00;;;10.10;99.90;;;;;;4967843;28;20039;-88
2023/11/05 00:07:00;;;;;;;18.95;3.80;;;10.10;99.90;;;;;;4958705;28;20028;-87
2023/11/05 00:09:25;;;;;;;15.88;3.38;;;10.10;99.90;;;;;;4957010;28;20414;-87
2023/11/05 00:11:51;;;;;;;11.90;2.92;;;10.10;99.90;;;;;;4958098;28;20024;-87
2023/11/05 00:14:16;;;;;;;15.18;3.45;;;10.10;99.90;;;;;;4969041;28;20035;-87
2023/11/05 00:16:42;;;;;;;17.23;3.22;;;10.10;99.90;;;;;;4956617;28;20042;-88
2023/11/05 00:19:08;;;;;;;15.75;2.90;;;10.10;99.90;;;;;;4957679;28;20027;-87
2023/11/05 00:21:34;;;;;;;15.60;3.45;;;10.10;99.90;;;;;;4957040;28;20043;-87
2023/11/05 00:24:00;;;;;;;22.13;3.70;;;10.10;99.90;;;;;;4967448;28;20089;-88
2023/11/05 00:26:26;;;;;;;18.25;3.60;;;10.10;99.90;;;;;;4976351;28;20407;-88
2023/11/05 00:28:51;;;;;;;14.73;2.72;;;10.10;99.90;;;;;;4976399;28;20042;-87
2023/11/05 00:31:17;;;;;;;11.10;2.25;;;10.00;99.90;;;;;;4975828;28;20460;-87
2023/11/05 00:33:42;;;;;;;13.05;3.00;;;10.10;99.90;;;;;;4972924;28;20031;-88
2023/11/05 00:36:11;;;;;;;12.70;2.97;;;10.10;99.90;;;;;;4976441;28;20106;-88
2023/11/05 00:38:37;;;;;;;16.08;3.03;;;10.10;99.90;;;;;;4975460;28;20026;-87
2023/11/05 00:41:04;;;;;;;18.15;3.42;;;10.10;99.90;;;;;;4976271;28;20042;-87
2023/11/05 00:43:30;;;;;;;24.60;3.78;;;10.10;99.90;;;;;;4976046;28;20391;-88
2023/11/05 00:45:56;;;;;;;12.10;2.53;;;10.20;99.90;;;;;;4982688;28;20031;-87
2023/11/05 00:48:21;;;;;;;12.35;2.67;;;10.20;99.90;;;;;;4979067;28;20486;-87
2023/11/05 00:50:47;;;;;;;17.42;3.28;;;10.20;99.90;;;;;;4975370;28;20030;-87
2023/11/05 00:53:12;;;;;;;11.13;3.00;;;10.20;99.90;;;;;;4975890;28;20073;-87
2023/11/05 00:55:38;;;;;;;14.10;3.03;;;10.30;99.90;;;;;;4975368;28;20048;-86
2023/11/05 00:58:04;;;;;;;12.13;2.10;;;10.30;99.90;;;;;;4974813;28;20033;-86
2023/11/05 01:00:29;;;;;;;13.85;3.22;;;10.30;99.90;;;;;;4975373;28;20117;-86
2023/11/05 01:02:55;;;;;;;13.07;2.67;;;10.30;99.90;;;;;;4968703;28;20047;-87
2023/11/05 01:05:20;;;;;;;12.45;2.85;;;10.30;99.90;;;;;;4964407;28;20499;-86
2023/11/05 01:07:46;;;;;;;16.33;2.88;;;10.30;99.90;;;;;;4967411;28;20074;-86
2023/11/05 01:10:11;;;;;;;14.35;2.75;;;10.30;99.90;;;;;;4956228;28;20023;-87
2023/11/05 01:12:37;;;;;;;11.48;2.97;;;10.30;99.90;;;;;;4955458;28;20030;-88
2023/11/05 01:15:03;;;;;;;12.60;3.00;;;10.30;99.90;;;;;;4956123;28;20495;-87
2023/11/05 01:17:29;;;;;;;13.80;2.83;;;10.30;99.90;;;;;;4967098;28;20502;-87
2023/11/05 01:19:55;;;;;;;12.82;2.67;;;10.30;99.90;;;;;;4955336;28;20047;-87
2023/11/05 01:22:21;;;;;;;13.27;2.13;;;10.30;99.90;;;;;;4955623;28;20369;-86
2023/11/05 01:24:47;;;;;;;10.35;2.65;;;10.40;99.90;;;;;;4956444;28;20039;-87
2023/11/05 01:27:13;;;;;;;10.02;2.80;;;10.40;99.90;;;;;;4955570;28;20169;-87
2023/11/05 01:29:39;;;;;;;8.40;2.35;;;10.30;99.90;;;;;;4962362;28;20031;-86
2023/11/05 01:32:05;;;;;;;13.23;2.42;;;10.40;99.90;;;;;;4973065;28;20026;-86
2023/11/05 01:34:31;;;;;;;11.05;2.95;;;10.40;99.90;;;;;;4974156;28;20091;-87
2023/11/05 01:36:57;;;;;;;11.50;2.30;;;10.40;99.90;;;;;;4975144;28;20027;-87
2023/11/05 01:39:23;;;;;;;12.88;2.67;;;10.40;99.90;;;;;;4971087;28;20056;-86
2023/11/05 01:41:48;;;;;;;11.18;2.70;;;10.40;99.90;;;;;;4969555;28;20042;-86
2023/11/05 01:44:14;;;;;;;15.25;2.63;;;10.40;99.90;;;;;;4955584;28;20039;-86
2023/11/05 01:46:39;;;;;;;16.58;3.40;;;10.40;99.90;;;;;;4955633;28;20027;-87
2023/11/05 01:49:05;;;;;;;8.05;2.28;;;10.40;99.90;;;;;;4958088;28;20027;-87
2023/11/05 01:51:32;;;;;;;11.20;2.33;;;10.40;99.90;;;;;;4964003;28;20027;-87
2023/11/05 01:53:59;;;;;;;9.27;1.95;;;10.40;99.90;;;;;;4955025;28;20042;-87
2023/11/05 01:56:27;;;;;;;10.98;2.42;;;10.40;99.90;;;;;;4955128;28;20408;-87
2023/11/05 01:58:54;;;;;;;10.93;2.30;;;10.40;99.90;;;;;;4958519;28;20033;-88
2023/11/05 02:01:20;;;;;;;10.02;2.25;;;10.40;99.90;;;;;;4963174;28;20058;-88
2023/11/05 02:03:46;;;;;;;8.70;2.10;;;10.40;99.90;;;;;;4955669;28;20480;-87
2023/11/05 02:06:15;;;;;;;10.13;2.63;;;10.50;99.90;;;;;;4955682;28;20031;-88
2023/11/05 02:08:41;;;;;;;6.20;1.67;;;10.40;99.90;;;;;;4954788;28;20019;-87
2023/11/05 02:11:08;;;;;;;9.40;2.38;;;10.50;99.90;;;;;;4963394;28;20030;-88
2023/11/05 02:13:51;;;;;;;12.85;2.33;;;10.50;99.90;;;;;;4965884;28;20053;-88
2023/11/05 02:16:17;;;;;;;13.48;2.25;;;10.50;99.90;;;;;;4974791;28;20077;-88
2023/11/05 02:18:43;;;;;;;8.98;2.28;;;10.50;99.90;;;;;;4974857;28;20033;-89
2023/11/05 02:21:11;;;;;;;12.63;3.28;;;10.50;99.90;;;;;;4975454;28;20034;-89
2023/11/05 02:23:37;;;;;;;11.95;2.63;;;10.50;99.90;;;;;;4967320;28;20027;-89
2023/11/05 02:26:03;;;;;;;16.50;2.58;;;10.40;99.90;;;;;;4981822;28;20030;-89
2023/11/05 02:28:31;;;;;;;15.23;2.10;;;10.40;99.90;;;;;;4995585;28;20027;-87
2023/11/05 02:30:57;;;;;;;12.20;2.67;;;10.40;99.90;;;;;;4994532;28;20062;-88
2023/11/05 02:33:23;;;;;;;10.45;2.55;;;10.40;99.90;;;;;;4989555;28;20030;-89
2023/11/05 02:35:48;;;;;;;9.45;2.83;;;10.40;99.90;;;;;;4981024;28;20042;-88
2023/11/05 02:38:14;;;;;;;13.38;2.25;;;10.40;99.90;;;;;;4973230;28;20022;-89
2023/11/05 02:40:40;;;;;;;12.43;2.28;;;10.40;99.90;;;;;;4974588;28;20039;-88
2023/11/05 02:43:05;;;;;;;6.00;1.73;;;10.40;99.90;;;;;;4974570;28;20030;-88
2023/11/05 02:45:32;;;;;;;8.35;2.42;;;10.40;99.90;;;;;;4974052;28;20434;-87
2023/11/05 02:47:57;;;;;;;6.13;1.52;;;10.40;99.90;;;;;;4967537;28;20031;-87
2023/11/05 02:50:23;;;;;;;8.77;2.25;;;10.40;99.90;;;;;;4962568;28;20544;-87
2023/11/05 02:52:48;;;;;;;11.65;2.50;;;10.40;99.90;;;;;;4955058;28;20071;-87
2023/11/05 02:55:14;;;;;;;8.38;1.98;;;10.40;99.90;;;;;;4954543;28;20087;-87
2023/11/05 02:57:40;;;;;;;9.05;2.33;;;10.40;99.90;;;;;;4958417;28;20023;-87
2023/11/05 03:00:09;;;;;;;7.03;1.88;;;10.40;99.90;;;;;;4968744;28;20495;-87
2023/11/05 03:02:35;;;;;;;7.82;2.08;;;10.30;99.90;;;;;;4956868;29;20023;-87
2023/11/05 03:05:01;;;;;;;6.60;1.95;;;10.30;99.90;;;;;;4975280;28;20430;-86
2023/11/05 03:07:26;;;;;;;10.85;2.72;;;10.30;99.90;;;;;;4977756;28;20027;-87
2023/11/05 03:09:52;;;;;;;5.10;2.00;;;10.30;99.90;;;;;;4976984;28;20369;-86
2023/11/05 03:12:18;;;;;;;7.93;1.70;;;10.30;99.90;;;;;;4965444;28;20086;-87
2023/11/05 03:14:43;;;;;;;5.50;1.77;;;10.30;99.90;;;;;;4977737;28;20031;-87
2023/11/05 03:17:09;;;;;;;8.23;1.65;;;10.30;99.90;;;;;;4977764;28;20034;-88
2023/11/05 03:19:34;;;;;;;7.15;1.83;;;10.40;99.90;;;;;;4976638;28;20106;-87
2023/11/05 03:22:00;;;;;;;7.18;1.85;;;10.40;99.90;;;;;;4975691;28;21858;-88
2023/11/05 03:24:25;;;;;;;7.32;1.73;;;10.40;99.90;;;;;;4968617;28;20051;-87
2023/11/05 03:26:51;;;;;;;6.80;1.70;;;10.40;99.90;;;;;;4957544;28;20070;-88
2023/11/05 03:29:18;;;;;;;5.68;1.55;;;10.40;99.90;;;;;;4959985;28;20081;-87
2023/11/05 03:31:43;;;;;;;8.07;2.28;;;10.80;99.90;;;;;;4958845;28;20047;-88
2023/11/05 03:34:09;;;;;;;5.93;1.75;;;10.40;99.90;;;;;;4967270;28;20051;-87
2023/11/05 03:36:34;;;;;;;10.77;1.92;;;10.40;99.90;;;;;;4975474;28;20426;-89
2023/11/05 03:39:00;;;;;;;9.65;2.10;;;10.40;99.90;;;;;;4979422;28;20038;-89
2023/11/05 03:41:25;;;;;;;6.47;1.40;;;10.40;99.90;;;;;;4981000;28;20034;-88
2023/11/05 03:43:51;;;;;;;5.43;1.73;;;10.40;99.90;;;;;;4983135;28;20095;-88
2023/11/05 03:46:18;;;;;;;10.38;2.08;;;10.40;99.90;;;;;;4971672;28;20046;-86
2023/11/05 03:48:43;;;;;;;7.10;2.55;;;10.40;99.90;;;;;;4975960;28;20085;-87
2023/11/05 03:51:13;;;;;;;23.75;2.22;;;10.40;99.90;;;;;;4977081;28;20419;-86
2023/11/05 03:53:39;;;;;;;4.72;1.58;;;10.40;99.90;;;;;;4975829;28;20273;-86
2023/11/05 03:56:05;;;;;;;7.35;2.63;;;10.40;99.90;;;;;;4975878;28;20383;-86
2023/11/05 03:58:31;;;;;;;5.18;1.90;;;10.50;99.90;;;;;;4968554;28;20027;-87
2023/11/05 04:00:56;;;;;;;7.47;1.75;;;10.50;99.90;;;;;;4956523;28;20045;-87
2023/11/05 04:03:22;;;;;;;6.88;1.80;;;10.40;99.90;;;;;;4957519;28;20069;-87
2023/11/05 04:05:54;;;;;;;11.90;2.75;;;10.40;99.90;;;;;;4973941;28;20026;-88
2023/11/05 04:08:19;;;;;;;3.25;1.67;;;10.50;99.90;;;;;;4972015;28;20019;-87
2023/11/05 04:10:45;;;;;;;6.22;2.47;;;10.50;99.90;;;;;;4967564;28;20062;-87
2023/11/05 04:13:10;;;;;;;6.35;2.13;;;10.50;99.90;;;;;;4957061;28;20026;-87
2023/11/05 04:15:37;;;;;;;6.18;2.03;;;10.40;99.90;;;;;;4956431;28;20042;-87
2023/11/05 04:18:02;;;;;;;8.40;2.50;;;10.70;99.90;;;;;;4957130;28;20034;-87
2023/11/05 04:20:28;;;;;;;6.50;2.03;;;10.50;99.90;;;;;;4956900;28;20130;-86
2023/11/05 04:22:54;;;;;;;5.57;2.10;;;10.50;99.90;;;;;;4960793;28;20026;-87
2023/11/05 04:25:19;;;;;;;10.00;2.05;;;10.40;99.90;;;;;;4966332;28;20087;-87
2023/11/05 04:27:45;;;;;;;9.63;2.50;;;10.50;99.90;;;;;;4957187;28;20031;-88
2023/11/05 04:30:12;;;;;;;4.10;1.92;;;10.40;99.90;;;;;;4956402;28;20102;-87
2023/11/05 04:32:37;;;;;;;8.50;2.20;;;10.50;99.90;;;;;;4956542;28;20035;-88
2023/11/05 04:35:04;;;;;;;4.45;1.73;;;10.50;99.90;;;;;;4960164;28;20046;-87
2023/11/05 04:37:29;;;;;;;4.45;2.03;;;10.50;99.90;;;;;;4964530;28;20432;-87
2023/11/05 04:39:55;;;;;;;7.95;2.50;;;11.00;99.90;;;;;;4956856;28;20086;-87
2023/11/05 04:42:20;;;;;;;5.82;1.58;;;10.50;99.90;;;;;;4956614;28;20357;-86
2023/11/05 04:44:46;;;;;;;5.15;2.00;;;10.50;99.90;;;;;;4956119;28;20028;-87
2023/11/05 04:47:12;;;;;;;4.88;1.77;;;10.50;99.90;;;;;;4958240;28;20073;-89
2023/11/05 04:49:37;;;;;;;3.97;1.85;;;10.50;99.90;;;;;;4967200;28;20050;-88
2023/11/05 04:52:03;;;;;;;9.95;2.65;;;10.50;99.90;;;;;;4956209;28;20042;-87
2023/11/05 04:54:29;;;;;;;8.90;2.17;;;10.50;99.90;;;;;;4956322;28;20027;-88
2023/11/05 04:56:54;;;;;;;7.32;2.67;;;10.50;99.90;;;;;;4956379;28;20019;-88
2023/11/05 04:59:20;;;;;;;13.60;2.75;;;10.60;99.90;;;;;;4956755;28;20399;-87
2023/11/05 05:01:45;;;;;;;8.80;2.10;;;10.60;99.90;;;;;;4963256;28;20046;-88
2023/11/05 05:04:11;;;;;;;12.82;3.35;;;10.60;99.90;;;;;;4975077;28;20061;-88
2023/11/05 05:06:37;;;;;;;10.43;2.10;;;10.60;99.90;;;;;;4976130;28;20474;-88
2023/11/05 05:09:03;;;;;;;4.68;1.67;;;10.60;99.90;;;;;;4975596;28;20026;-88
2023/11/05 05:11:28;;;;;;;7.57;2.00;;;10.60;99.90;;;;;;4967009;28;20038;-88
2023/11/05 05:13:54;;;;;;;6.55;2.03;;;10.60;99.90;;;;;;4959127;28;20023;-89
2023/11/05 05:16:20;;;;;;;8.48;1.88;;;10.60;99.90;;;;;;4957347;29;20064;-88
2023/11/05 05:18:46;;;;;;;6.07;1.88;;;11.30;99.90;;;;;;4963555;28;20439;-87
2023/11/05 05:21:13;;;;;;;5.15;1.80;;;10.60;99.90;;;;;;4956111;28;20118;-88
2023/11/05 05:23:38;;;;;;;8.43;2.08;;;10.60;99.90;;;;;;4961257;28;20031;-87
2023/11/05 05:26:04;;;;;;;8.18;1.60;;;11.00;99.90;;;;;;4962483;28;20090;-87
2023/11/05 05:28:30;;;;;;;14.65;2.80;;;10.60;99.90;;;;;;4956387;28;20027;-91
2023/11/05 05:30:56;;;;;;;6.97;1.80;;;10.60;99.90;;;;;;4955795;28;20571;-88
2023/11/05 05:33:22;;;;;;;5.10;1.65;;;10.60;99.90;;;;;;4958319;28;20038;-88
2023/11/05 05:35:48;;;;;;;10.70;2.08;;;10.60;99.90;;;;;;4964578;28;20469;-87
2023/11/05 05:38:14;;;;;;;8.48;2.40;;;10.60;99.90;;;;;;4955725;28;20488;-88
2023/11/05 05:40:40;;;;;;;5.25;2.00;;;10.60;99.90;;;;;;4955197;28;20042;-87
2023/11/05 05:43:06;;;;;;;6.30;2.17;;;10.60;99.90;;;;;;4960064;28;20372;-88
2023/11/05 05:45:31;;;;;;;5.93;2.03;;;10.60;99.90;;;;;;4964443;28;20118;-89
2023/11/05 05:47:57;;;;;;;8.00;2.25;;;10.60;99.90;;;;;;4955329;28;20104;-86
2023/11/05 05:50:22;;;;;;;10.82;1.90;;;10.60;99.90;;;;;;4955712;28;20035;-88
2023/11/05 05:52:48;;;;;;;4.57;1.70;;;10.60;99.90;;;;;;4956212;28;20023;-88
2023/11/05 05:55:15;;;;;;;6.60;1.80;;;10.70;99.90;;;;;;4955190;28;20027;-89
2023/11/05 05:57:41;;;;;;;5.00;1.80;;;10.70;99.90;;;;;;4961190;28;20061;-88
2023/11/05 06:00:09;;;;;;;10.63;2.42;;;10.60;99.90;;;;;;4960733;28;20031;-88
2023/11/05 06:02:35;;;;;;;5.70;2.00;;;10.60;99.90;;;;;;4955057;28;20031;-88
2023/11/05 06:05:02;;;;;;;12.70;2.03;;;10.60;99.90;;;;;;4955427;28;20556;-88
2023/11/05 06:07:31;;;;;;;5.47;1.65;;;10.60;99.90;;;;;;4954729;28;20042;-88
2023/11/05 06:09:58;;;;;;;5.43;1.92;;;11.10;99.90;;;;;;4961535;28;20085;-88
2023/11/05 06:12:24;;;;;;;10.15;2.20;;;10.60;99.90;;;;;;4980405;28;20200;-87
2023/11/05 06:14:50;;;;;;;5.63;2.25;;;10.60;99.90;;;;;;4975453;28;20086;-88
2023/11/05 06:17:15;;;;;;;6.05;1.75;;;10.60;99.90;;;;;;4974447;28;20023;-89
2023/11/05 06:19:41;;;;;;;11.15;1.67;;;10.60;99.90;;;;;;4974413;28;20026;-88
2023/11/05 06:22:07;;;;;;;9.63;2.30;;;10.80;99.90;;;;;;4967136;28;20031;-87
2023/11/05 06:24:32;;;;;;;5.65;1.75;;;10.60;99.90;;;;;;4962782;28;20050;-88
2023/11/05 06:26:58;;;;;;;8.40;2.28;;;10.60;99.90;;;;;;4961997;28;20042;-89
2023/11/05 06:29:24;;;;;;;14.75;2.55;;;10.60;99.90;;;;;;4971046;28;20117;-88
2023/11/05 06:31:51;;;;;;;9.40;2.53;;;10.60;99.90;;;;;;4970517;28;20491;-86
2023/11/05 06:34:16;;;;;;;13.73;2.45;;;10.60;99.90;;;;;;4973142;28;20114;-87
2023/11/05 06:37:02;;;;;;;8.10;3.40;;;11.10;99.90;;;;;;4972243;28;20115;-88
2023/11/05 06:39:28;;;;;;;6.57;2.45;;;10.60;99.90;;;;;;4972614;28;20035;-87
2023/11/05 06:41:55;;;;;;;5.75;2.47;;;10.60;99.90;;;;;;4972552;28;20487;-87
2023/11/05 06:44:20;;;;;;;6.80;3.20;;;10.60;99.90;;;;;;4972804;28;20370;-88
2023/11/05 06:46:46;;;;;;;9.82;3.38;;;10.60;99.90;;;;;;4973156;28;20137;-89
2023/11/05 06:49:12;;;;;;;16.08;4.57;;;10.60;99.90;;;;;;4973033;28;20382;-87
2023/11/05 06:51:37;;;;;;;10.52;3.58;;;10.60;99.90;;;;;;4972111;28;20037;-86
2023/11/05 06:54:03;;;;;;;9.02;2.90;;;10.60;99.90;;;;;;4969733;28;20034;-87
2023/11/05 06:56:28;;;;;;;7.00;3.53;;;10.60;99.90;;;;;;4972327;28;20027;-87
2023/11/05 06:58:54;;;;;;;9.60;2.95;;;10.60;99.90;;;;;;4972856;28;20038;-87
2023/11/05 07:01:20;;;;;;;8.15;2.60;;;10.60;99.90;;;;;;4973003;28;20046;-88
2023/11/05 07:03:46;;;;;;;6.65;3.10;;;10.70;99.90;;;;;;4972180;28;20114;-87
2023/11/05 07:06:16;;;;;;;8.68;2.25;;;10.60;99.90;;;;;;4981609;28;20038;-87
2023/11/05 07:08:42;;;;;;;8.50;2.60;;;10.70;99.90;;;;;;4976757;28;20031;-87
2023/11/05 07:11:08;;;;;;;10.00;2.50;;;10.70;99.90;;;;;;4973369;28;20035;-88
2023/11/05 07:13:34;;;;;;;11.00;2.90;;;10.70;99.90;;;;;;4968822;28;20026;-87
2023/11/05 07:16:00;;;;;;;7.70;2.53;;;10.70;99.90;;;;;;4972510;28;20102;-89
2023/11/05 07:18:25;;;;;;;7.82;3.17;;;10.70;99.90;;;;;;4972971;28;20031;-87
2023/11/05 07:20:51;;;;;;;11.05;3.45;;;10.70;99.90;;;;;;4976957;28;20035;-88
2023/11/05 07:23:17;;;;;;;12.63;3.28;;;10.70;99.90;;;;;;4967778;28;20022;-86
2023/11/05 07:25:43;;;;;;;16.17;3.35;;;10.70;99.90;;;;;;4953537;29;20428;-87
2023/11/05 07:28:09;;;;;;;8.90;3.00;;;10.70;99.90;;;;;;4954418;29;20062;-86
2023/11/05 07:30:35;;;;;;;8.38;3.28;;;10.80;99.90;;;;;;4953676;29;20127;-87
2023/11/05 07:33:01;;;;;;;9.68;2.67;;;10.80;99.90;;;;;;4952252;29;20031;-86
2023/11/05 07:35:26;;;;;;;10.52;2.78;;;10.80;99.90;;;;;;4953425;28;20031;-87
2023/11/05 07:37:54;;;;;;;11.52;2.97;;;10.80;99.90;;;;;;4957693;28;20494;-85
2023/11/05 07:40:20;;;;;;;9.15;2.80;;;10.70;99.90;;;;;;4970057;28;20031;-87
2023/11/05 07:42:46;;;;;;;10.65;3.28;;;10.80;99.90;;;;;;4974334;28;20025;-86
2023/11/05 07:45:12;;;;;;;9.32;3.05;;;10.80;99.90;;;;;;4977039;28;20447;-87
2023/11/05 07:47:39;;;;;;;13.95;3.58;;;10.80;99.90;;;;;;4976248;28;20364;-88
2023/11/05 07:50:14;;;;;;;13.45;4.10;;;10.80;99.90;;;;;;4977063;28;20026;-87
2023/11/05 07:52:43;;;;;;;12.05;3.50;;;10.80;99.90;;;;;;4976420;28;20054;-88
2023/11/05 07:55:10;;;;;;;12.52;4.07;;;10.80;99.90;;;;;;4975265;28;20030;-88
2023/11/05 07:57:36;;;;;;;7.95;3.50;;;10.80;99.90;;;;;;4976827;28;20475;-89
2023/11/05 08:00:03;;;;;;;16.17;3.90;;;10.80;99.90;;;;;;4984699;28;20037;-89
2023/11/05 08:02:29;;;;;;;12.52;4.13;;;10.80;99.90;;;;;;4978542;28;20149;-88
2023/11/05 08:04:56;;;;;;;11.85;3.58;;;10.80;99.90;;;;;;4977002;28;20392;-88
2023/11/05 08:07:23;;;;;;;11.60;3.88;;;10.80;99.90;;;;;;4975871;28;20042;-87
2023/11/05 08:09:49;;;;;;;14.15;3.80;;;10.80;99.90;;;;;;4976495;28;20022;-87
2023/11/05 08:12:15;;;;;;;17.77;4.22;;;10.80;99.90;;;;;;4976688;28;20034;-87
2023/11/05 08:14:40;;;;;;;9.05;4.70;;;10.80;99.90;;;;;;4970444;28;20027;-87
2023/11/05 08:17:07;;;;;;;10.50;4.13;;;10.80;99.90;;;;;;4968034;28;20529;-88
2023/11/05 08:19:32;;;;;;;15.15;5.60;;;10.80;99.90;;;;;;4976004;28;20479;-87
2023/11/05 08:21:58;;;;;;;7.65;4.07;;;10.80;99.90;;;;;;4975867;28;20039;-89
2023/11/05 08:24:24;;;;;;;11.30;3.85;;;10.90;99.90;;;;;;4976052;28;20529;-87
2023/11/05 08:26:49;;;;;;;8.50;3.42;;;10.80;99.90;;;;;;4976234;28;20496;-87
2023/11/05 08:29:15;;;;;;;12.68;4.22;;;10.80;99.90;;;;;;4975892;28;20023;-88
2023/11/05 08:31:42;;;;;;;11.65;3.60;;;10.80;99.90;;;;;;4975777;28;20530;-88
2023/11/05 08:34:07;;;;;;;9.85;3.80;;;10.80;99.90;;;;;;4980793;28;20517;-87
2023/11/05 08:36:34;;;;;;;12.55;3.22;;;10.80;99.90;;;;;;4977232;28;20091;-87
2023/11/05 08:39:00;;;;;;;10.85;3.65;;;10.80;99.90;;;;;;4981888;28;20051;-88
2023/11/05 08:41:26;;;;;;;8.95;3.10;;;10.80;99.90;;;;;;4987591;28;20117;-89
2023/11/05 08:43:52;;;;;;;11.57;3.70;;;10.90;99.90;;;;;;4975732;28;20112;-89
2023/11/05 08:46:17;;;;;;;7.85;3.33;;;10.90;99.90;;;;;;4985804;28;20149;-86
2023/11/05 08:48:43;;;;;;;9.95;3.13;;;10.90;99.90;;;;;;4988427;28;20026;-87
2023/11/05 08:51:09;;;;;;;13.60;3.90;;;10.90;99.90;;;;;;4995166;28;20367;-89
2023/11/05 08:53:34;;;;;;;14.50;3.72;;;10.90;99.90;;;;;;5003265;28;20030;-87
2023/11/05 08:56:00;;;;;;;13.13;3.35;;;11.50;99.90;;;;;;4973404;28;20523;-86
2023/11/05 08:58:26;;;;;;;11.65;3.08;;;10.90;99.90;;;;;;4956216;28;20534;-87
2023/11/05 09:00:55;;;;;;;11.93;3.00;;;11.00;99.90;;;;;;4964407;28;20031;-87
2023/11/05 09:03:22;;;;;;;8.68;3.38;;;11.00;99.90;;;;;;4975645;28;20390;-90
2023/11/05 09:05:48;;;;;;;12.40;2.95;;;11.00;99.90;;;;;;4976212;28;20082;-86
2023/11/05 09:08:14;;;;;;;8.07;2.53;;;11.00;99.90;;;;;;4975362;28;20027;-87
2023/11/05 09:10:40;;;;;;;9.88;3.60;;;11.00;99.90;;;;;;4977352;28;20042;-87
2023/11/05 09:13:05;;;;;;;10.18;3.00;;;11.00;99.90;;;;;;4983497;28;20022;-87
2023/11/05 09:15:31;;;;;;;8.73;2.78;;;11.00;99.90;;;;;;4984416;28;20486;-87
2023/11/05 09:17:57;;;;;;;4.88;2.65;;;11.00;99.90;;;;;;4978725;28;20019;-88
2023/11/05 09:20:23;;;;;;;15.07;2.97;;;10.90;99.90;;;;;;4983642;28;20387;-91
2023/11/05 09:22:49;;;;;;;9.18;3.35;;;10.90;99.90;;;;;;4986504;28;20037;-89
2023/11/05 09:25:14;;;;;;;8.65;2.92;;;10.90;99.90;;;;;;4987491;28;20026;-88
2023/11/05 09:27:40;;;;;;;6.72;2.80;;;10.90;99.90;;;;;;4984959;28;20498;-89
2023/11/05 09:30:11;;;;;;;6.90;2.70;;;10.90;99.90;;;;;;4971282;28;20529;-89
2023/11/05 09:32:44;;;;;;;8.73;3.47;;;10.90;99.90;;;;;;4959794;28;20032;-91
2023/11/05 09:35:12;;;;;;;8.38;3.08;;;10.90;99.90;;;;;;4960708;28;20033;-91
2023/11/05 09:37:39;;;;;;;9.63;3.58;;;10.90;99.90;;;;;;4961857;28;20472;-90
2023/11/05 09:40:06;;;;;;;8.98;3.00;;;10.90;99.90;;;;;;4964269;28;20037;-88
2023/11/05 09:42:39;;;;;;;5.38;3.00;;;10.90;99.90;;;;;;4966594;28;20379;-91
2023/11/05 09:45:06;;;;;;;4.70;2.50;;;10.90;99.90;;;;;;4957614;28;20027;-87
2023/11/05 09:47:33;;;;;;;8.70;3.08;;;10.80;99.90;;;;;;4982557;28;20035;-88
2023/11/05 09:49:59;;;;;;;8.32;3.92;;;10.80;99.90;;;;;;4975279;28;20050;-87
2023/11/05 09:52:28;;;;;;;6.70;3.50;;;10.80;99.90;;;;;;4974550;28;20510;-87
2023/11/05 09:54:54;;;;;;;10.05;2.97;;;10.80;99.90;;;;;;4974393;28;20511;-90
2023/11/05 09:57:20;;;;;;;7.40;3.63;;;10.80;99.90;;;;;;4960731;28;20035;-88
2023/11/05 09:59:47;;;;;;;3.85;2.97;;;10.80;99.90;;;;;;4967370;28;20506;-86
2023/11/05 10:02:13;;;;;;;10.20;4.05;;;11.40;99.90;;;;;;4979541;28;20041;-86
2023/11/05 10:04:39;;;;;;;6.47;3.20;;;10.90;99.90;;;;;;4984802;28;20027;-85
2023/11/05 10:07:05;;;;;;;8.25;3.65;;;10.90;99.90;;;;;;4972626;28;20027;-86
2023/11/05 10:09:30;;;;;;;10.45;3.40;;;10.90;99.90;;;;;;4974046;28;20019;-85
2023/11/05 10:11:56;;;;;;;7.57;2.63;;;10.80;99.90;;;;;;4974458;28;20387;-86
2023/11/05 10:14:22;;;;;;;8.23;1.77;;;11.30;99.90;;;;;;4973532;28;20493;-85
2023/11/05 10:16:47;;;;;;;8.43;1.95;;;10.80;99.90;;;;;;4974329;28;20027;-84
2023/11/05 10:19:13;;;;;;;5.30;2.03;;;11.30;99.90;;;;;;4972697;28;20111;-84
2023/11/05 10:21:39;;;;;;;11.77;2.40;;;10.80;99.90;;;;;;4972701;28;20063;-87
2023/11/05 10:24:07;;;;;;;8.93;1.80;;;10.80;99.90;;;;;;4963690;28;20033;-83
2023/11/05 10:26:33;;;;;;;10.13;1.73;;;10.80;99.90;;;;;;4956450;28;20484;-85
2023/11/05 10:29:00;;;;;;;13.98;2.15;;;11.20;99.90;;;;;;4971525;28;20102;-86
2023/11/05 10:31:26;;;;;;;10.25;3.75;;;10.90;99.90;;;;;;4985093;28;20082;-86
2023/11/05 10:33:54;;;;;;;10.02;2.80;;;11.00;99.90;;;;;;4974364;28;20023;-86
2023/11/05 10:36:27;;;;;;;10.90;2.10;;;11.00;99.90;;;;;;4973452;28;20023;-86
2023/11/05 10:38:53;;;;;;;13.88;2.72;;;11.00;99.90;;;;;;4970065;28;20498;-85
2023/11/05 10:41:19;;;;;;;9.52;2.70;;;11.00;99.90;;;;;;4979006;28;20050;-87
2023/11/05 10:43:50;;;;;;;10.98;2.45;;;11.10;99.90;;;;;;4976481;28;20027;-87
2023/11/05 10:46:17;;;;;;;9.93;2.88;;;11.10;99.90;;;;;;4974481;28;20089;-88
2023/11/05 10:48:45;;;;;;;7.43;2.63;;;11.20;99.90;;;;;;4973405;28;20105;-87
2023/11/05 10:51:13;;;;;;;8.75;2.28;;;11.20;99.90;;;;;;4972965;28;20026;-86
2023/11/05 10:53:41;;;;;;;7.88;2.60;;;11.20;99.90;;;;;;4976745;28;20034;-86
2023/11/05 10:56:25;;;;;;;8.05;2.20;;;11.30;99.90;;;;;;4974188;28;20038;-87
2023/11/05 10:58:51;;;;;;;9.00;2.40;;;11.30;99.90;;;;;;4971723;28;20068;-86
2023/11/05 11:01:20;;;;;;;10.60;2.97;;;11.40;99.90;;;;;;4979140;28;20042;-88
2023/11/05 11:03:46;;;;;;;7.72;2.85;;;11.50;99.90;;;;;;4977273;28;20026;-86
2023/11/05 11:06:14;;;;;;;13.27;3.17;;;11.50;99.90;;;;;;4969864;28;20109;-88
2023/11/05 11:08:55;;;;;;;7.40;2.08;;;11.70;99.90;;;;;;4970663;28;20035;-89
2023/11/05 11:11:21;;;;;;;9.10;2.67;;;11.50;99.90;;;;;;4968926;28;20364;-87
2023/11/05 11:13:48;;;;;;;3.30;2.05;;;11.50;99.90;;;;;;4968396;28;20034;-85
2023/11/05 11:16:25;;;;;;;4.13;1.90;;;11.50;99.90;;;;;;4973235;28;20502;-87
2023/11/05 11:18:54;;;;;;;9.05;2.63;;;11.50;99.90;;;;;;4971834;28;20023;-88
2023/11/05 11:21:20;;;;;;;4.82;2.70;;;11.50;99.90;;;;;;4976071;28;20043;-88
2023/11/05 11:23:46;;;;;;;4.20;2.75;;;11.50;99.90;;;;;;4974752;28;20466;-87
2023/11/05 11:26:19;;;;;;;7.35;2.20;;;11.50;99.90;;;;;;4973276;28;20034;-87
2023/11/05 11:28:45;;;;;;;10.88;2.60;;;11.40;99.90;;;;;;4975637;28;20026;-89
2023/11/05 11:31:12;;;;;;;5.43;2.28;;;11.40;99.90;;;;;;4975259;28;20051;-88
2023/11/05 11:33:38;;;;;;;5.78;2.65;;;11.30;99.90;;;;;;4975067;28;20066;-89
2023/11/05 11:36:07;;;;;;;7.78;2.42;;;11.30;99.90;;;;;;4973800;28;20038;-86
2023/11/05 11:38:33;;;;;;;4.95;2.13;;;11.30;99.90;;;;;;4972279;28;20034;-87
2023/11/05 11:40:59;;;;;;;3.83;2.20;;;11.30;99.90;;;;;;4975280;28;20106;-87
2023/11/05 11:43:28;;;;;;;8.40;2.60;;;12.10;99.90;;;;;;4973425;28;20486;-89
2023/11/05 11:45:54;;;;;;;5.32;2.40;;;11.30;99.90;;;;;;4974543;28;20034;-90
2023/11/05 11:48:25;;;;;;;5.75;2.40;;;11.30;99.90;;;;;;4975179;28;20058;-88
2023/11/05 11:51:01;;;;;;;4.68;2.35;;;11.50;99.90;;;;;;4975276;28;20081;-88
2023/11/05 11:53:33;;;;;;;8.02;2.63;;;11.30;99.90;;;;;;4974522;28;20390;-88
2023/11/05 11:56:00;;;;;;;5.97;2.13;;;11.30;99.90;;;;;;4974964;28;20038;-87
2023/11/05 11:58:27;;;;;;;6.63;1.92;;;11.30;99.90;;;;;;4970289;28;20031;-87
2023/11/05 12:00:53;;;;;;;5.13;2.13;;;11.30;99.90;;;;;;4971105;28;20041;-89
2023/11/05 12:03:20;;;;;;;4.32;1.80;;;11.30;99.90;;;;;;4975885;28;20106;-88
2023/11/05 12:05:46;;;;;;;9.82;2.28;;;11.20;99.90;;;;;;4971136;28;20042;-89
2023/11/05 12:08:13;;;;;;;9.60;2.53;;;11.10;99.90;;;;;;4975316;28;20023;-87
2023/11/05 12:10:41;;;;;;;6.30;2.10;;;11.10;99.90;;;;;;4974066;28;20454;-88
2023/11/05 12:13:07;;;;;;;10.50;1.80;;;11.00;99.90;;;;;;4977737;28;20093;-87
2023/11/05 12:15:32;;;;;;;8.98;1.83;;;11.00;99.90;;;;;;4976945;28;20422;-87
2023/11/05 12:17:58;;;;;;;9.63;2.03;;;11.60;99.90;;;;;;4975804;28;20031;-87
2023/11/05 12:20:24;;;;;;;9.27;2.53;;;11.20;99.90;;;;;;4973941;28;20043;-86
2023/11/05 12:22:49;;;;;;;9.57;2.10;;;11.00;99.90;;;;;;4974836;28;20026;-87
2023/11/05 12:25:15;;;;;;;7.03;1.75;;;11.10;99.90;;;;;;4977168;28;20027;-86
2023/11/05 12:27:48;;;;;;;16.60;2.63;;;11.00;99.90;;;;;;4974775;28;20047;-87
2023/11/05 12:30:21;;;;;;;8.52;1.85;;;11.00;99.90;;;;;;4973487;28;20054;-86
2023/11/05 12:32:52;;;;;;;7.40;1.98;;;11.00;99.90;;;;;;4975182;28;20026;-87
2023/11/05 12:35:18;;;;;;;7.78;2.00;;;11.00;99.90;;;;;;4975673;28;20027;-84
2023/11/05 12:37:44;;;;;;;5.18;1.50;;;11.00;99.90;;;;;;4975344;28;20558;-85
2023/11/05 12:40:10;;;;;;;6.57;1.77;;;11.00;99.90;;;;;;4975434;28;20038;-86